Time;durP1;ratioP1;P1;durP2;ratioP2;P2;SDS_P1;SDS_P2;PMS_P1;PMS_P2;Temp;Humidity;BMP_temperature;BMP_pressure;BME280_temperature;BME280_humidity;BME280_pressure;Samples;Min_cycle;Max_cycle;Signal;HPM_P1;HPM_P2
2023/03/13 00:00:47;;;;;;;;;;;18.50;69.30;;;;;;5096556;27;44499;-77
2023/03/13 00:03:12;;;;;;;;;;;18.40;69.40;;;;;;5125665;27;43117;-77
2023/03/13 00:05:38;;;;;;;;;;;18.50;69.40;;;;;;5125457;27;43519;-77
2023/03/13 00:08:03;;;;;;;;;;;18.40;69.20;;;;;;5125835;27;42889;-77
2023/03/13 00:10:29;;;;;;;;;;;18.30;69.40;;;;;;5125159;27;43748;-78
2023/03/13 00:12:54;;;;;;;;;;;18.30;69.40;;;;;;5125746;27;42760;-77
2023/03/13 00:15:20;;;;;;;;;;;18.40;69.60;;;;;;5125874;27;43739;-77
2023/03/13 00:17:45;;;;;;;;;;;18.40;69.40;;;;;;5125973;27;42964;-76
2023/03/13 00:20:11;;;;;;;;;;;18.40;69.40;;;;;;5125707;27;43147;-77
2023/03/13 00:22:36;;;;;;;;;;;18.30;69.30;;;;;;5125026;27;42900;-78
2023/03/13 00:25:02;;;;;;;;;;;18.40;69.50;;;;;;5124779;27;43671;-78
2023/03/13 00:27:31;;;;;;;;;;;18.30;69.30;;;;;;5125194;27;43347;-79
2023/03/13 00:29:56;;;;;;;;;;;17.40;68.90;;;;;;5106634;27;44628;-78
2023/03/13 00:32:22;;;;;;;;;;;18.30;69.80;;;;;;5113145;27;42861;-78
2023/03/13 00:34:47;;;;;;;;;;;18.30;69.60;;;;;;5104291;27;44046;-78
2023/03/13 00:37:13;;;;;;;;;;;18.30;69.60;;;;;;5104396;27;43191;-76
2023/03/13 00:39:38;;;;;;;;;;;18.40;69.50;;;;;;5123005;27;42974;-76
2023/03/13 00:42:04;;;;;;;;;;;18.40;69.00;;;;;;5055505;27;1864227;-78
2023/03/13 00:44:30;;;;;;;;;;;18.50;69.30;;;;;;5105854;27;43413;-77
2023/03/13 00:46:55;;;;;;;;;;;18.40;69.70;;;;;;5106002;27;43053;-76
2023/03/13 00:49:21;;;;;;;;;;;18.60;69.70;;;;;;5105602;27;42795;-77
2023/03/13 00:51:46;;;;;;;;;;;18.30;69.60;;;;;;5105886;27;43065;-78
2023/03/13 00:54:12;;;;;;;;;;;18.30;69.60;;;;;;5105262;27;44067;-78
2023/03/13 00:56:37;;;;;;;;;;;18.50;69.80;;;;;;5105240;27;42916;-77
2023/03/13 00:59:03;;;;;;;;;;;18.40;69.70;;;;;;5105566;27;43625;-78
2023/03/13 01:01:30;;;;;;;;;;;18.40;69.90;;;;;;5104592;27;43189;-78
2023/03/13 01:03:57;;;;;;;;;;;17.80;69.30;;;;;;5105040;27;43400;-78
2023/03/13 01:06:24;;;;;;;;;;;18.30;69.60;;;;;;5105208;27;42964;-77
2023/03/13 01:08:50;;;;;;;;;;;18.30;69.60;;;;;;5106241;27;42864;-80
2023/03/13 01:11:17;;;;;;;;;;;18.50;70.00;;;;;;5105776;27;43255;-77
2023/03/13 01:13:43;;;;;;;;;;;19.40;70.30;;;;;;5105169;27;42996;-76
2023/03/13 01:16:10;;;;;;;;;;;18.50;69.70;;;;;;5104477;27;42806;-77
2023/03/13 01:18:36;;;;;;;;;;;18.40;69.70;;;;;;5105185;27;42949;-78
2023/03/13 01:21:02;;;;;;;;;;;18.50;69.80;;;;;;5105105;27;42996;-78
2023/03/13 01:23:28;;;;;;;;;;;18.40;69.70;;;;;;5105026;27;42942;-78
2023/03/13 01:25:54;;;;;;;;;;;18.50;69.90;;;;;;5105844;27;42815;-77
2023/03/13 01:28:20;;;;;;;;;;;18.80;70.00;;;;;;5105484;27;43529;-78
2023/03/13 01:30:46;;;;;;;;;;;18.50;69.80;;;;;;5105500;27;42930;-78
2023/03/13 01:33:11;;;;;;;;;;;18.40;69.90;;;;;;5103253;27;43144;-77
2023/03/13 01:35:37;;;;;;;;;;;18.40;69.80;;;;;;5104319;27;43125;-77
2023/03/13 01:38:02;;;;;;;;;;;18.50;69.80;;;;;;5104863;27;43796;-78
2023/03/13 01:40:28;;;;;;;;;;;18.50;69.90;;;;;;5104889;27;43589;-77
2023/03/13 01:42:55;;;;;;;;;;;18.50;69.90;;;;;;5095757;27;43153;-77
2023/03/13 01:45:39;;;;;;;;;;;18.40;69.70;;;;;;5104536;27;42926;-78
2023/03/13 01:48:04;;;;;;;;;;;18.50;68.50;;;;;;5104915;27;43528;-79
2023/03/13 01:50:30;;;;;;;;;;;18.50;69.60;;;;;;5086275;27;42856;-78
2023/03/13 01:52:56;;;;;;;;;;;18.30;69.40;;;;;;5104344;27;42967;-78
2023/03/13 01:55:22;;;;;;;;;;;18.40;69.60;;;;;;5104033;27;43004;-79
2023/03/13 01:57:49;;;;;;;;;;;18.40;69.70;;;;;;5104590;27;42969;-78
2023/03/13 02:00:28;;;;;;;;;;;18.50;69.70;;;;;;5105024;27;42935;-78
2023/03/13 02:02:54;;;;;;;;;;;18.50;69.60;;;;;;5104444;27;42994;-78
2023/03/13 02:05:21;;;;;;;;;;;18.40;69.60;;;;;;5104678;27;42988;-78
2023/03/13 02:07:54;;;;;;;;;;;18.50;69.80;;;;;;5104151;27;44212;-78
2023/03/13 02:10:23;;;;;;;;;;;18.50;68.50;;;;;;5103753;27;43030;-78
2023/03/13 02:12:50;;;;;;;;;;;18.60;69.10;;;;;;5104416;27;43397;-78
2023/03/13 02:15:17;;;;;;;;;;;18.70;69.90;;;;;;5104290;27;43061;-77
2023/03/13 02:17:44;;;;;;;;;;;18.50;69.80;;;;;;5104413;27;42918;-77
2023/03/13 02:20:10;;;;;;;;;;;18.60;69.90;;;;;;5104025;27;42946;-76
2023/03/13 02:22:59;;;;;;;;;;;18.60;69.30;;;;;;5104000;27;42956;-77
2023/03/13 02:25:24;;;;;;;;;;;18.50;68.60;;;;;;5104610;27;43073;-77
2023/03/13 02:27:51;;;;;;;;;;;18.40;69.60;;;;;;5105556;27;43638;-78
2023/03/13 02:30:17;;;;;;;;;;;18.60;69.80;;;;;;5108401;27;42904;-78
2023/03/13 02:32:44;;;;;;;;;;;18.60;70.00;;;;;;5108053;27;44086;-78
2023/03/13 02:35:11;;;;;;;;;;;18.50;69.80;;;;;;5107618;27;42983;-77
2023/03/13 02:37:38;;;;;;;;;;;18.60;69.80;;;;;;5108095;27;43647;-77
2023/03/13 02:40:08;;;;;;;;;;;18.60;69.80;;;;;;5107812;27;42859;-77
2023/03/13 02:42:35;;;;;;;;;;;18.60;69.70;;;;;;5107543;27;43403;-78
2023/03/13 02:45:00;;;;;;;;;;;18.60;69.90;;;;;;5107560;27;42980;-78
2023/03/13 02:47:26;;;;;;;;;;;18.70;70.20;;;;;;5107948;27;42963;-78
2023/03/13 02:49:52;;;;;;;;;;;18.40;70.00;;;;;;5108024;27;43022;-78
2023/03/13 02:52:23;;;;;;;;;;;18.60;70.00;;;;;;5106557;27;43631;-78
2023/03/13 02:54:50;;;;;;;;;;;18.60;68.70;;;;;;5107111;27;42891;-78
2023/03/13 02:57:15;;;;;;;;;;;18.60;70.10;;;;;;5107254;27;42977;-78
2023/03/13 02:59:41;;;;;;;;;;;18.60;70.10;;;;;;5108308;27;42905;-79
2023/03/13 03:02:06;;;;;;;;;;;18.40;70.10;;;;;;5107783;27;43583;-77
2023/03/13 03:04:32;;;;;;;;;;;18.50;70.10;;;;;;5107472;27;43114;-78
2023/03/13 03:06:57;;;;;;;;;;;18.50;70.20;;;;;;5107254;27;43295;-77
2023/03/13 03:09:23;;;;;;;;;;;18.50;70.20;;;;;;5107201;27;43039;-78
2023/03/13 03:11:49;;;;;;;;;;;18.80;70.30;;;;;;5106964;27;44477;-78
2023/03/13 03:14:15;;;;;;;;;;;18.60;70.40;;;;;;5107092;27;43032;-78
2023/03/13 03:16:40;;;;;;;;;;;18.60;70.20;;;;;;5106711;27;43752;-78
2023/03/13 03:19:06;;;;;;;;;;;18.60;70.30;;;;;;5107413;27;43054;-78
2023/03/13 03:21:32;;;;;;;;;;;18.50;70.20;;;;;;5107312;27;42944;-78
2023/03/13 03:23:58;;;;;;;;;;;18.50;70.20;;;;;;5102763;27;43215;-79
2023/03/13 03:26:23;;;;;;;;;;;18.50;70.30;;;;;;5106862;27;43126;-78
2023/03/13 03:28:49;;;;;;;;;;;18.50;70.20;;;;;;5106742;27;43219;-78
2023/03/13 03:31:15;;;;;;;;;;;18.40;70.00;;;;;;5106811;27;43519;-79
2023/03/13 03:33:41;;;;;;;;;;;18.40;70.10;;;;;;5107512;27;43251;-79
2023/03/13 03:36:08;;;;;;;;;;;18.30;70.10;;;;;;5107160;27;43481;-79
2023/03/13 03:38:34;;;;;;;;;;;18.40;70.10;;;;;;5106316;27;42961;-78
2023/03/13 03:40:59;;;;;;;;;;;18.60;70.30;;;;;;5106149;27;43780;-78
2023/03/13 03:43:25;;;;;;;;;;;18.60;70.20;;;;;;5106397;27;43111;-78
2023/03/13 03:45:50;;;;;;;;;;;18.70;70.20;;;;;;5106683;27;42926;-78
2023/03/13 03:48:16;;;;;;;;;;;18.60;70.40;;;;;;5106562;27;43065;-78
2023/03/13 03:50:41;;;;;;;;;;;18.60;70.30;;;;;;5106927;27;43766;-77
2023/03/13 03:53:08;;;;;;;;;;;18.60;70.40;;;;;;5106147;27;42876;-79
2023/03/13 03:55:34;;;;;;;;;;;18.70;70.30;;;;;;5106277;27;43545;-78
2023/03/13 03:57:59;;;;;;;;;;;18.50;70.20;;;;;;5106402;27;42954;-77
2023/03/13 04:00:26;;;;;;;;;;;18.60;69.70;;;;;;5106277;27;44335;-78
2023/03/13 04:02:52;;;;;;;;;;;18.50;70.30;;;;;;5105404;27;43419;-77
2023/03/13 04:05:18;;;;;;;;;;;18.60;70.30;;;;;;5106196;27;43057;-78
2023/03/13 04:07:43;;;;;;;;;;;18.60;70.40;;;;;;5106289;27;42976;-78
2023/03/13 04:10:09;;;;;;;;;;;18.60;70.50;;;;;;5104582;27;42957;-78
2023/03/13 04:12:35;;;;;;;;;;;18.60;70.30;;;;;;5105334;27;42919;-77
2023/03/13 04:15:00;;;;;;;;;;;18.50;71.30;;;;;;5106377;27;43641;-77
2023/03/13 04:17:26;;;;;;;;;;;18.50;70.70;;;;;;5106839;27;43013;-78
2023/03/13 04:19:51;;;;;;;;;;;18.50;70.80;;;;;;5106334;27;42954;-78
2023/03/13 04:22:17;;;;;;;;;;;18.60;70.80;;;;;;5105629;27;42935;-77
2023/03/13 04:24:43;;;;;;;;;;;18.50;70.30;;;;;;5105975;27;43567;-78
2023/03/13 04:27:08;;;;;;;;;;;18.40;70.80;;;;;;5105650;27;42858;-79
2023/03/13 04:29:34;;;;;;;;;;;18.40;70.70;;;;;;5106090;27;43455;-78
2023/03/13 04:32:00;;;;;;;;;;;18.50;70.90;;;;;;5106170;27;42910;-78
2023/03/13 04:34:25;;;;;;;;;;;18.60;70.80;;;;;;5106535;27;43555;-78
2023/03/13 04:36:51;;;;;;;;;;;18.60;71.10;;;;;;5106618;27;42830;-78
2023/03/13 04:39:16;;;;;;;;;;;18.40;70.90;;;;;;5105973;27;43523;-78
2023/03/13 04:41:42;;;;;;;;;;;18.50;71.00;;;;;;5105824;27;42862;-79
2023/03/13 04:44:07;;;;;;;;;;;18.40;71.00;;;;;;5104172;27;42887;-77
2023/03/13 04:46:32;;;;;;;;;;;18.50;70.90;;;;;;5105069;27;43004;-78
2023/03/13 04:48:58;;;;;;;;;;;18.30;70.80;;;;;;5105847;27;43618;-78
2023/03/13 04:51:24;;;;;;;;;;;18.50;71.20;;;;;;5104678;27;42873;-79
2023/03/13 04:53:49;;;;;;;;;;;18.60;71.00;;;;;;5104893;27;43063;-78
2023/03/13 04:56:22;;;;;;;;;;;18.50;70.90;;;;;;5104425;27;43157;-79
2023/03/13 04:58:48;;;;;;;;;;;18.50;69.60;;;;;;5105982;27;43917;-79
2023/03/13 05:01:13;;;;;;;;;;;18.50;70.90;;;;;;5108019;27;42996;-78
2023/03/13 05:03:39;;;;;;;;;;;18.50;70.90;;;;;;5114148;27;43793;-78
2023/03/13 05:06:04;;;;;;;;;;;18.50;70.80;;;;;;5112560;27;44679;-79
2023/03/13 05:08:30;;;;;;;;;;;18.40;70.70;;;;;;5110839;27;43721;-84
2023/03/13 05:10:56;;;;;;;;;;;18.60;71.00;;;;;;5115158;27;43029;-84
2023/03/13 05:13:22;;;;;;;;;;;18.50;71.00;;;;;;5115432;27;42948;-83
2023/03/13 05:15:47;;;;;;;;;;;18.70;71.20;;;;;;5114924;27;42901;-83
2023/03/13 05:18:13;;;;;;;;;;;18.50;71.20;;;;;;5113721;27;43026;-84
2023/03/13 05:20:38;;;;;;;;;;;18.50;71.70;;;;;;5116283;27;43033;-85
2023/03/13 05:23:04;;;;;;;;;;;18.50;71.00;;;;;;5115660;27;43031;-85
2023/03/13 05:25:29;;;;;;;;;;;18.40;71.00;;;;;;5105449;27;43150;-81
2023/03/13 05:27:55;;;;;;;;;;;18.40;71.10;;;;;;5114464;27;43278;-82
2023/03/13 05:30:20;;;;;;;;;;;18.40;71.00;;;;;;5112765;27;42902;-82
2023/03/13 05:32:46;;;;;;;;;;;18.50;71.20;;;;;;5112007;27;43140;-81
2023/03/13 05:35:11;;;;;;;;;;;18.50;71.30;;;;;;5108150;27;43095;-82
2023/03/13 05:37:37;;;;;;;;;;;18.50;71.30;;;;;;5105320;27;43625;-82
2023/03/13 05:40:03;;;;;;;;;;;18.50;71.10;;;;;;5077399;27;43104;-84
2023/03/13 05:42:28;;;;;;;;;;;18.30;68.00;;;;;;5102484;27;43535;-84
2023/03/13 05:44:54;;;;;;;;;;;18.20;65.90;;;;;;5105524;27;43143;-88
2023/03/13 05:47:19;;;;;;;;;;;18.20;64.60;;;;;;5113575;27;43013;-84
2023/03/13 05:49:45;;;;;;;;;;;18.00;62.90;;;;;;5106853;27;42976;-82
2023/03/13 05:52:10;;;;;;;;;;;17.80;62.40;;;;;;5116299;27;43022;-86
2023/03/13 05:54:36;;;;;;;;;;;17.70;62.00;;;;;;5076170;27;43023;-85
2023/03/13 05:57:01;;;;;;;;;;;17.80;64.30;;;;;;5111937;27;43493;-91
2023/03/13 05:59:27;;;;;;;;;;;17.80;64.00;;;;;;5115321;27;42838;-93
2023/03/13 06:01:52;;;;;;;;;;;17.60;64.20;;;;;;5082118;27;45477;-95
2023/03/13 06:04:18;;;;;;;;;;;17.60;63.70;;;;;;5107885;27;42918;-85
2023/03/13 06:06:44;;;;;;;;;;;17.70;63.40;;;;;;5114009;27;43479;-87
2023/03/13 06:09:10;;;;;;;;;;;17.60;62.90;;;;;;5104459;27;42943;-87
2023/03/13 06:11:36;;;;;;;;;;;17.60;62.90;;;;;;5099415;27;44610;-80
2023/03/13 06:14:02;;;;;;;;;;;17.50;62.40;;;;;;5105387;27;42903;-83
2023/03/13 06:16:27;;;;;;;;;;;17.60;61.90;;;;;;5105939;27;44195;-89
2023/03/13 06:18:53;;;;;;;;;;;17.60;61.80;;;;;;5085948;27;43001;-90
2023/03/13 06:21:18;;;;;;;;;;;17.50;62.10;;;;;;5104965;27;43013;-88
2023/03/13 06:23:44;;;;;;;;;;;17.50;62.00;;;;;;5105404;27;42890;-84
2023/03/13 06:26:10;;;;;;;;;;;17.50;61.70;;;;;;5105284;27;43388;-89
2023/03/13 06:28:35;;;;;;;;;;;17.30;61.60;;;;;;5086910;27;42999;-89
2023/03/13 06:31:02;;;;;;;;;;;17.30;61.00;;;;;;5124796;27;42768;-85
2023/03/13 06:33:27;;;;;;;;;;;17.40;61.60;;;;;;5106744;27;43174;-88
2023/03/13 06:35:53;;;;;;;;;;;17.50;61.10;;;;;;5126376;27;43915;-89
2023/03/13 06:38:18;;;;;;;;;;;17.20;61.70;;;;;;5126531;27;42925;-88
2023/03/13 06:40:44;;;;;;;;;;;17.30;61.60;;;;;;5125637;27;43178;-85
2023/03/13 06:43:09;;;;;;;;;;;17.30;61.70;;;;;;5106414;27;42970;-90
2023/03/13 06:45:35;;;;;;;;;;;17.20;61.80;;;;;;5125259;27;42906;-90
2023/03/13 06:48:01;;;;;;;;;;;17.30;61.20;;;;;;5125764;27;42984;-90
2023/03/13 06:50:26;;;;;;;;;;;17.30;62.10;;;;;;5126131;27;43245;-90
2023/03/13 06:52:52;;;;;;;;;;;17.40;61.50;;;;;;5126038;27;42940;-89
2023/03/13 06:55:17;;;;;;;;;;;17.40;62.20;;;;;;5125671;27;43361;-90
2023/03/13 06:57:43;;;;;;;;;;;17.40;62.20;;;;;;5125791;27;42882;-89
2023/03/13 07:00:10;;;;;;;;;;;17.40;62.30;;;;;;5125110;27;42918;-89
2023/03/13 07:02:35;;;;;;;;;;;17.30;62.00;;;;;;5106580;27;42960;-90
2023/03/13 07:05:04;;;;;;;;;;;17.30;62.60;;;;;;5125850;27;43802;-89
2023/03/13 07:07:31;;;;;;;;;;;17.10;62.60;;;;;;5126567;27;43177;-90
2023/03/13 07:09:57;;;;;;;;;;;17.10;62.40;;;;;;5125058;27;43617;-90
2023/03/13 07:12:23;;;;;;;;;;;17.30;61.80;;;;;;5125358;27;42984;-90
2023/03/13 07:14:48;;;;;;;;;;;17.70;62.70;;;;;;5127887;27;43583;-90
2023/03/13 07:17:13;;;;;;;;;;;17.30;62.00;;;;;;5129111;27;42894;-89
2023/03/13 07:19:39;;;;;;;;;;;17.20;62.80;;;;;;5129386;27;43543;-89
2023/03/13 07:22:04;;;;;;;;;;;17.20;63.00;;;;;;5129327;27;43001;-88
2023/03/13 07:24:30;;;;;;;;;;;17.30;62.40;;;;;;5129382;27;43804;-89
2023/03/13 07:26:56;;;;;;;;;;;17.20;63.20;;;;;;5110152;27;42755;-90
2023/03/13 07:29:21;;;;;;;;;;;17.10;62.90;;;;;;5128989;27;42961;-90
2023/03/13 07:31:47;;;;;;;;;;;17.30;62.40;;;;;;5128927;27;42883;-89
2023/03/13 07:34:12;;;;;;;;;;;17.20;62.90;;;;;;5128842;27;42730;-89
2023/03/13 07:36:40;;;;;;;;;;;17.20;63.00;;;;;;5129455;27;42992;-89
2023/03/13 07:39:06;;;;;;;;;;;17.00;62.90;;;;;;5128399;27;43302;-80
2023/03/13 07:41:31;;;;;;;;;;;17.10;62.80;;;;;;5128989;27;42957;-83
2023/03/13 07:43:57;;;;;;;;;;;17.20;63.00;;;;;;5128224;27;43659;-80
2023/03/13 07:46:22;;;;;;;;;;;17.10;62.20;;;;;;5127944;27;43008;-85
2023/03/13 07:48:48;;;;;;;;;;;17.10;62.90;;;;;;5128315;27;42931;-88
2023/03/13 07:51:15;;;;;;;;;;;17.10;62.90;;;;;;5128602;27;42980;-84
2023/03/13 07:53:42;;;;;;;;;;;17.10;62.90;;;;;;5126991;27;44345;-80
2023/03/13 07:56:10;;;;;;;;;;;17.10;62.90;;;;;;5128689;27;42880;-80
2023/03/13 07:58:36;;;;;;;;;;;17.20;62.90;;;;;;5110168;27;44688;-86
2023/03/13 08:01:13;;;;;;;;;;;17.10;62.70;;;;;;5110142;27;43044;-83
2023/03/13 08:03:38;;;;;;;;;;;17.20;61.80;;;;;;5128358;27;43029;-84
2023/03/13 08:06:08;;;;;;;;;;;17.20;63.20;;;;;;5128599;27;42953;-90
2023/03/13 08:08:34;;;;;;;;;;;17.20;62.60;;;;;;5128683;27;43446;-85
2023/03/13 08:11:09;;;;;;;;;;;17.50;63.10;;;;;;5128482;27;42757;-80
2023/03/13 08:13:35;;;;;;;;;;;17.30;62.50;;;;;;5128001;27;43712;-81
2023/03/13 08:16:11;;;;;;;;;;;17.40;61.80;;;;;;5127975;27;43027;-82
2023/03/13 08:18:38;;;;;;;;;;;17.30;62.00;;;;;;5128584;27;42921;-89
2023/03/13 08:21:05;;;;;;;;;;;17.30;62.00;;;;;;5128170;27;42940;-87
2023/03/13 08:23:30;;;;;;;;;;;17.40;62.00;;;;;;5127697;27;42829;-84
2023/03/13 08:26:00;;;;;;;;;;;17.40;62.40;;;;;;5126627;27;43075;-85
2023/03/13 08:28:25;;;;;;;;;;;17.40;63.20;;;;;;5127886;27;42854;-86
2023/03/13 08:30:51;;;;;;;;;;;17.40;62.90;;;;;;5128288;27;42953;-82
2023/03/13 08:33:16;;;;;;;;;;;17.40;62.80;;;;;;5128008;27;43455;-84
2023/03/13 08:35:42;;;;;;;;;;;17.40;62.70;;;;;;5128249;27;42919;-89
2023/03/13 08:38:07;;;;;;;;;;;17.40;62.70;;;;;;5128244;27;43744;-89
2023/03/13 08:40:32;;;;;;;;;;;17.30;62.20;;;;;;5127344;27;43177;-89
2023/03/13 08:42:58;;;;;;;;;;;17.30;61.60;;;;;;5127055;27;42972;-86
2023/03/13 08:45:23;;;;;;;;;;;17.40;61.10;;;;;;5127688;27;42957;-89
2023/03/13 08:47:52;;;;;;;;;;;17.40;60.80;;;;;;5127487;27;43380;-86
2023/03/13 08:50:17;;;;;;;;;;;17.40;61.00;;;;;;5127813;27;42872;-87
2023/03/13 08:52:43;;;;;;;;;;;17.40;60.50;;;;;;5127305;27;44251;-88
2023/03/13 08:55:09;;;;;;;;;;;17.40;60.90;;;;;;5127940;27;42943;-81
2023/03/13 08:57:34;;;;;;;;;;;17.40;60.50;;;;;;5127219;27;43478;-88
2023/03/13 09:00:00;;;;;;;;;;;17.50;60.80;;;;;;5109291;27;42803;-82
2023/03/13 09:02:25;;;;;;;;;;;17.40;60.90;;;;;;5127844;27;42902;-81
2023/03/13 09:04:51;;;;;;;;;;;17.30;60.80;;;;;;5127890;27;43048;-82
2023/03/13 09:07:16;;;;;;;;;;;17.40;61.00;;;;;;5127449;27;42991;-82
2023/03/13 09:09:42;;;;;;;;;;;17.40;60.30;;;;;;5127209;27;42887;-82
2023/03/13 09:12:08;;;;;;;;;;;17.20;60.80;;;;;;5108732;27;45209;-82
2023/03/13 09:14:33;;;;;;;;;;;17.30;60.70;;;;;;5127563;27;42876;-87
2023/03/13 09:16:59;;;;;;;;;;;17.20;61.10;;;;;;5127169;27;43620;-89
2023/03/13 09:19:24;;;;;;;;;;;17.40;60.80;;;;;;5127222;27;42937;-82
2023/03/13 09:21:50;;;;;;;;;;;17.40;60.10;;;;;;5126576;27;42935;-89
2023/03/13 09:24:16;;;;;;;;;;;17.40;60.00;;;;;;5127382;27;43012;-88
2023/03/13 09:26:41;;;;;;;;;;;17.30;60.10;;;;;;5127536;27;42917;-89
2023/03/13 09:29:07;;;;;;;;;;;17.40;60.30;;;;;;5127406;27;42841;-87
2023/03/13 09:31:33;;;;;;;;;;;17.30;60.30;;;;;;5126753;27;42838;-90
2023/03/13 09:33:58;;;;;;;;;;;17.30;61.00;;;;;;5108220;27;42981;-90
2023/03/13 09:36:24;;;;;;;;;;;17.40;61.20;;;;;;5126242;27;42893;-86
2023/03/13 09:38:50;;;;;;;;;;;17.50;61.20;;;;;;5126274;27;42866;-87
2023/03/13 09:41:16;;;;;;;;;;;17.40;61.10;;;;;;5107683;27;44758;-90
2023/03/13 09:43:50;;;;;;;;;;;17.60;61.30;;;;;;5126391;27;42760;-82
2023/03/13 09:46:26;;;;;;;;;;;17.50;60.00;;;;;;5126620;27;43528;-85
2023/03/13 09:48:57;;;;;;;;;;;17.50;60.10;;;;;;5126359;27;42927;-85
2023/03/13 09:51:35;;;;;;;;;;;17.40;59.90;;;;;;5126550;27;43215;-86
2023/03/13 09:54:36;;;;;;;;;;;17.50;60.10;;;;;;5126806;27;43006;-86
2023/03/13 09:57:09;;;;;;;;;;;17.50;60.10;;;;;;5042705;28;43815;-83
2023/03/13 09:59:42;;;;;;;;;;;17.50;60.10;;;;;;5042825;28;42957;-81
2023/03/13 10:02:34;;;;;;;;;;;17.50;60.10;;;;;;5042866;28;43011;-87
2023/03/13 10:05:19;;;;;;;;;;;17.50;60.20;;;;;;5039036;28;43045;-81
2023/03/13 10:07:45;;;;;;;;;;;17.40;61.00;;;;;;5042043;28;42969;-84
2023/03/13 10:10:19;;;;;;;;;;;17.40;61.00;;;;;;5042942;28;43216;-87
2023/03/13 10:12:46;;;;;;;;;;;17.60;59.70;;;;;;5042698;28;43665;-82
2023/03/13 10:15:31;;;;;;;;;;;17.70;61.10;;;;;;5042267;28;42935;-85
2023/03/13 10:17:58;;;;;;;;;;;17.50;59.50;;;;;;5041890;28;43753;-82
2023/03/13 10:20:28;;;;;;;;;;;17.70;60.50;;;;;;5041799;28;42912;-81
2023/03/13 10:22:57;;;;;;;;;;;17.50;59.40;;;;;;5041888;28;43578;-81
2023/03/13 10:25:31;;;;;;;;;;;17.50;60.10;;;;;;5042262;28;42943;-86
2023/03/13 10:27:57;;;;;;;;;;;17.50;59.20;;;;;;5042287;28;42916;-81
2023/03/13 10:30:37;;;;;;;;;;;17.50;60.30;;;;;;5061074;27;43022;-81
2023/03/13 10:33:05;;;;;;;;;;;17.40;59.10;;;;;;5125943;27;43984;-88
2023/03/13 10:35:33;;;;;;;;;;;17.40;58.60;;;;;;5125786;27;43050;-87
2023/03/13 10:38:00;;;;;;;;;;;17.50;59.30;;;;;;5124995;27;43357;-86
2023/03/13 10:40:27;;;;;;;;;;;17.40;59.30;;;;;;5126247;27;42943;-81
2023/03/13 10:42:58;;;;;;;;;;;17.30;59.40;;;;;;5125879;27;43357;-83
2023/03/13 10:45:23;;;;;;;;;;;17.30;59.40;;;;;;5125768;27;42913;-80
2023/03/13 10:47:52;;;;;;;;;;;17.40;59.40;;;;;;5125285;27;43452;-87
2023/03/13 10:50:20;;;;;;;;;;;17.50;60.00;;;;;;5128955;27;42855;-83
2023/03/13 10:52:47;;;;;;;;;;;17.50;59.70;;;;;;5129950;27;43523;-84
2023/03/13 10:55:15;;;;;;;;;;;17.60;59.50;;;;;;5130065;27;42781;-82
2023/03/13 10:57:43;;;;;;;;;;;17.40;59.60;;;;;;5128811;27;42806;-84
2023/03/13 11:00:24;;;;;;;;;;;17.00;59.50;;;;;;5103991;27;42982;-85
2023/03/13 11:02:49;;;;;;;;;;;17.60;60.10;;;;;;5087730;28;42936;-87
2023/03/13 11:05:24;;;;;;;;;;;17.50;60.00;;;;;;5088228;28;42919;-80
2023/03/13 11:07:50;;;;;;;;;;;17.60;59.00;;;;;;5112493;27;42918;-87
2023/03/13 11:10:16;;;;;;;;;;;17.70;60.40;;;;;;5116413;27;43008;-84
2023/03/13 11:12:45;;;;;;;;;;;17.60;59.70;;;;;;5116861;27;43427;-85
2023/03/13 11:15:15;;;;;;;;;;;17.50;58.50;;;;;;5113508;27;43069;-79
2023/03/13 11:17:41;;;;;;;;;;;17.40;59.60;;;;;;5107629;27;43296;-81
2023/03/13 11:20:24;;;;;;;;;;;17.30;60.00;;;;;;5108612;27;42747;-84
2023/03/13 11:22:53;;;;;;;;;;;17.50;59.30;;;;;;5117045;27;43632;-82
2023/03/13 11:25:28;;;;;;;;;;;17.50;60.20;;;;;;5116120;27;42962;-83
2023/03/13 11:28:09;;;;;;;;;;;17.60;59.30;;;;;;5115737;27;42930;-83
2023/03/13 11:30:44;;;;;;;;;;;17.50;59.40;;;;;;5114514;27;43018;-84
2023/03/13 11:33:19;;;;;;;;;;;17.50;59.40;;;;;;5114635;27;43775;-85
2023/03/13 11:35:48;;;;;;;;;;;17.40;59.50;;;;;;5118380;27;43033;-84
2023/03/13 11:38:27;;;;;;;;;;;17.60;60.60;;;;;;5112670;27;42974;-84
2023/03/13 11:41:02;;;;;;;;;;;17.60;59.60;;;;;;5118698;27;42936;-85
2023/03/13 11:43:46;;;;;;;;;;;17.60;59.90;;;;;;5116756;27;43489;-82
2023/03/13 11:46:38;;;;;;;;;;;17.60;58.90;;;;;;5116581;27;42945;-87
2023/03/13 11:49:22;;;;;;;;;;;17.20;58.40;;;;;;5063985;27;44188;-83
2023/03/13 11:51:48;;;;;;;;;;;17.30;59.20;;;;;;5115686;27;43023;-79
2023/03/13 11:54:22;;;;;;;;;;;17.20;60.10;;;;;;5113977;27;42961;-79
2023/03/13 11:56:58;;;;;;;;;;;17.20;59.10;;;;;;5115633;27;42927;-85
2023/03/13 11:59:42;;;;;;;;;;;17.20;59.40;;;;;;5113840;27;43493;-82
2023/03/13 12:02:26;;;;;;;;;;;17.10;59.60;;;;;;5091760;27;42952;-79
2023/03/13 12:04:54;;;;;;;;;;;17.20;59.70;;;;;;5115876;27;43128;-79
2023/03/13 12:07:20;;;;;;;;;;;17.20;60.80;;;;;;5115284;27;42982;-83
2023/03/13 12:10:05;;;;;;;;;;;17.30;60.20;;;;;;5115946;27;43300;-86
2023/03/13 12:12:47;;;;;;;;;;;17.40;59.40;;;;;;5100014;27;43032;-80
2023/03/13 12:15:13;;;;;;;;;;;17.30;58.50;;;;;;5115554;27;43014;-86
2023/03/13 12:17:40;;;;;;;;;;;17.10;59.20;;;;;;5115497;27;43195;-86
2023/03/13 12:20:09;;;;;;;;;;;17.00;59.70;;;;;;5114673;27;42960;-83
2023/03/13 12:22:58;;;;;;;;;;;17.10;57.80;;;;;;5112390;27;43043;-80
2023/03/13 12:25:27;;;;;;;;;;;17.10;57.40;;;;;;5095808;27;43544;-78
2023/03/13 12:27:56;;;;;;;;;;;17.10;58.40;;;;;;5107118;27;42863;-83
2023/03/13 12:30:41;;;;;;;;;;;17.20;58.50;;;;;;5107084;27;42888;-85
2023/03/13 12:33:15;;;;;;;;;;;17.40;58.30;;;;;;5100539;27;42914;-80
2023/03/13 12:35:42;;;;;;;;;;;17.30;58.30;;;;;;5088980;27;43035;-83
2023/03/13 12:38:11;;;;;;;;;;;17.50;59.30;;;;;;5086407;28;42897;-88
2023/03/13 12:40:55;;;;;;;;;;;17.40;56.70;;;;;;5085259;28;43704;-84
2023/03/13 12:43:30;;;;;;;;;;;17.30;56.70;;;;;;5080909;28;42773;-82
2023/03/13 12:45:55;;;;;;;;;;;17.20;57.50;;;;;;5086642;28;43357;-84
2023/03/13 12:48:24;;;;;;;;;;;17.20;58.20;;;;;;5086446;28;42879;-83
2023/03/13 12:51:12;;;;;;;;;;;17.00;57.00;;;;;;5086274;28;42942;-82
2023/03/13 12:54:04;;;;;;;;;;;17.00;57.60;;;;;;5077238;28;43049;-85
2023/03/13 12:56:48;;;;;;;;;;;17.00;57.00;;;;;;5098394;27;43765;-81
2023/03/13 12:59:16;;;;;;;;;;;16.90;57.10;;;;;;5106984;27;43043;-83
2023/03/13 13:01:44;;;;;;;;;;;17.10;57.70;;;;;;5106563;27;42946;-84
2023/03/13 13:04:11;;;;;;;;;;;17.00;58.30;;;;;;5106554;27;42957;-84
2023/03/13 13:06:51;;;;;;;;;;;17.00;58.30;;;;;;5107128;27;43724;-84
2023/03/13 13:09:19;;;;;;;;;;;17.00;57.30;;;;;;5107301;27;42835;-86
2023/03/13 13:11:46;;;;;;;;;;;17.20;58.20;;;;;;5105747;27;42984;-84
2023/03/13 13:14:14;;;;;;;;;;;17.00;58.30;;;;;;5091131;27;42989;-83
2023/03/13 13:16:41;;;;;;;;;;;17.10;57.50;;;;;;5092130;27;43547;-85
2023/03/13 13:19:27;;;;;;;;;;;17.10;58.20;;;;;;5086538;28;42868;-81
2023/03/13 13:22:11;;;;;;;;;;;17.10;58.30;;;;;;5074265;27;45153;-81
2023/03/13 13:24:47;;;;;;;;;;;17.10;57.90;;;;;;5098062;27;42985;-80
2023/03/13 13:27:26;;;;;;;;;;;17.20;58.20;;;;;;5089247;27;43574;-85
2023/03/13 13:29:54;;;;;;;;;;;17.40;58.30;;;;;;5117118;27;43057;-84
2023/03/13 13:32:28;;;;;;;;;;;17.30;58.60;;;;;;5107572;27;45293;-83
2023/03/13 13:34:54;;;;;;;;;;;17.20;58.60;;;;;;5126599;27;42971;-85
2023/03/13 13:37:19;;;;;;;;;;;17.10;58.50;;;;;;5122724;27;43186;-85
2023/03/13 13:39:49;;;;;;;;;;;17.10;58.40;;;;;;5085504;28;43136;-85
2023/03/13 13:42:30;;;;;;;;;;;16.60;58.20;;;;;;5085116;28;43393;-83
2023/03/13 13:45:03;;;;;;;;;;;17.00;58.10;;;;;;5066892;28;43058;-84
2023/03/13 13:47:29;;;;;;;;;;;17.10;58.00;;;;;;5085187;28;42989;-86
2023/03/13 13:49:57;;;;;;;;;;;17.20;59.10;;;;;;5083783;28;43032;-85
2023/03/13 13:52:38;;;;;;;;;;;17.20;58.90;;;;;;5085165;28;43317;-85
2023/03/13 13:55:24;;;;;;;;;;;18.10;59.20;;;;;;5086294;27;43113;-84
2023/03/13 13:57:50;;;;;;;;;;;17.40;59.10;;;;;;5077629;27;42974;-84
2023/03/13 14:00:24;;;;;;;;;;;17.40;59.10;;;;;;5066583;28;43092;-82
2023/03/13 14:02:56;;;;;;;;;;;17.70;58.10;;;;;;5066221;28;44861;-82
2023/03/13 14:05:26;;;;;;;;;;;17.10;57.50;;;;;;5093744;27;43103;-82
2023/03/13 14:08:01;;;;;;;;;;;17.30;58.80;;;;;;5071569;27;44306;-82
2023/03/13 14:10:40;;;;;;;;;;;17.30;58.30;;;;;;5104366;27;43017;-82
2023/03/13 14:13:19;;;;;;;;;;;17.20;58.10;;;;;;5085642;27;43561;-82
2023/03/13 14:15:48;;;;;;;;;;;17.30;58.70;;;;;;5105347;27;43343;-82
2023/03/13 14:18:24;;;;;;;;;;;17.10;58.60;;;;;;5104061;27;42937;-82
2023/03/13 14:20:54;;;;;;;;;;;17.40;58.90;;;;;;5086695;27;43042;-83
2023/03/13 14:23:34;;;;;;;;;;;17.30;58.90;;;;;;5106358;27;43002;-82